sensor_id;sensor_type;location;lat;lon;timestamp;temperature;humidity
25732;DHT22;13585;50.864;4.406;2023-04-15T00:01:31;19.20;66.70
25732;DHT22;13585;50.864;4.406;2023-04-15T00:03:58;19.20;66.70
25732;DHT22;13585;50.864;4.406;2023-04-15T00:06:24;19.10;66.60
25732;DHT22;13585;50.864;4.406;2023-04-15T00:08:50;19.20;66.70
25732;DHT22;13585;50.864;4.406;2023-04-15T00:11:17;19.10;66.60
25732;DHT22;13585;50.864;4.406;2023-04-15T00:13:43;19.20;66.60
25732;DHT22;13585;50.864;4.406;2023-04-15T00:16:09;19.20;66.80
25732;DHT22;13585;50.864;4.406;2023-04-15T00:18:37;19.10;66.50
25732;DHT22;13585;50.864;4.406;2023-04-15T00:21:04;19.20;66.60
25732;DHT22;13585;50.864;4.406;2023-04-15T00:23:31;19.10;66.50
25732;DHT22;13585;50.864;4.406;2023-04-15T00:25:57;19.20;66.60
25732;DHT22;13585;50.864;4.406;2023-04-15T00:28:23;19.20;66.60
25732;DHT22;13585;50.864;4.406;2023-04-15T00:30:49;19.20;66.60
25732;DHT22;13585;50.864;4.406;2023-04-15T00:33:14;19.20;66.60
25732;DHT22;13585;50.864;4.406;2023-04-15T00:35:43;19.20;66.50
25732;DHT22;13585;50.864;4.406;2023-04-15T00:38:09;19.20;66.50
25732;DHT22;13585;50.864;4.406;2023-04-15T00:40:36;19.10;66.50
25732;DHT22;13585;50.864;4.406;2023-04-15T00:43:02;19.20;66.50
25732;DHT22;13585;50.864;4.406;2023-04-15T00:45:28;19.10;66.40
25732;DHT22;13585;50.864;4.406;2023-04-15T00:47:54;19.10;66.50
25732;DHT22;13585;50.864;4.406;2023-04-15T00:50:20;19.10;66.40
25732;DHT22;13585;50.864;4.406;2023-04-15T00:52:46;19.10;66.40
25732;DHT22;13585;50.864;4.406;2023-04-15T00:55:12;19.20;66.40
25732;DHT22;13585;50.864;4.406;2023-04-15T00:57:38;19.10;66.40
25732;DHT22;13585;50.864;4.406;2023-04-15T01:00:05;19.10;66.40
25732;DHT22;13585;50.864;4.406;2023-04-15T01:02:34;19.10;66.30
25732;DHT22;13585;50.864;4.406;2023-04-15T01:05:01;19.10;66.30
25732;DHT22;13585;50.864;4.406;2023-04-15T01:07:26;19.10;66.30
25732;DHT22;13585;50.864;4.406;2023-04-15T01:09:53;19.10;66.20
25732;DHT22;13585;50.864;4.406;2023-04-15T01:12:20;19.10;66.30
25732;DHT22;13585;50.864;4.406;2023-04-15T01:14:46;19.10;66.20
25732;DHT22;13585;50.864;4.406;2023-04-15T01:17:12;19.10;66.20
25732;DHT22;13585;50.864;4.406;2023-04-15T01:19:38;19.10;66.20
25732;DHT22;13585;50.864;4.406;2023-04-15T01:22:05;19.10;66.20
25732;DHT22;13585;50.864;4.406;2023-04-15T01:24:31;19.10;66.20
25732;DHT22;13585;50.864;4.406;2023-04-15T01:26:58;19.10;66.20
25732;DHT22;13585;50.864;4.406;2023-04-15T01:29:24;19.10;66.10
25732;DHT22;13585;50.864;4.406;2023-04-15T01:31:53;19.10;66.10
25732;DHT22;13585;50.864;4.406;2023-04-15T01:34:19;19.10;66.10
25732;DHT22;13585;50.864;4.406;2023-04-15T01:36:47;19.10;66.10
25732;DHT22;13585;50.864;4.406;2023-04-15T01:39:14;19.10;66.10
25732;DHT22;13585;50.864;4.406;2023-04-15T01:41:40;19.10;66.00
25732;DHT22;13585;50.864;4.406;2023-04-15T01:44:07;19.10;66.00
25732;DHT22;13585;50.864;4.406;2023-04-15T01:46:33;19.10;66.00
25732;DHT22;13585;50.864;4.406;2023-04-15T01:48:59;19.10;66.20
25732;DHT22;13585;50.864;4.406;2023-04-15T01:51:25;19.10;66.00
25732;DHT22;13585;50.864;4.406;2023-04-15T01:53:51;19.10;66.00
25732;DHT22;13585;50.864;4.406;2023-04-15T01:56:16;19.10;66.00
25732;DHT22;13585;50.864;4.406;2023-04-15T01:58:43;19.10;65.90
25732;DHT22;13585;50.864;4.406;2023-04-15T02:01:08;19.10;66.00
25732;DHT22;13585;50.864;4.406;2023-04-15T02:03:36;19.10;66.00
25732;DHT22;13585;50.864;4.406;2023-04-15T02:06:02;19.10;65.90
25732;DHT22;13585;50.864;4.406;2023-04-15T02:08:29;19.10;65.90
25732;DHT22;13585;50.864;4.406;2023-04-15T02:10:54;19.10;65.90
25732;DHT22;13585;50.864;4.406;2023-04-15T02:13:20;19.10;65.80
25732;DHT22;13585;50.864;4.406;2023-04-15T02:15:47;19.00;65.80
25732;DHT22;13585;50.864;4.406;2023-04-15T02:18:13;19.00;65.70
25732;DHT22;13585;50.864;4.406;2023-04-15T02:20:39;19.10;65.80
25732;DHT22;13585;50.864;4.406;2023-04-15T02:23:06;19.10;65.80
25732;DHT22;13585;50.864;4.406;2023-04-15T02:25:33;19.10;65.80
25732;DHT22;13585;50.864;4.406;2023-04-15T02:27:59;19.10;65.70
25732;DHT22;13585;50.864;4.406;2023-04-15T02:30:24;19.00;65.70
25732;DHT22;13585;50.864;4.406;2023-04-15T02:32:51;19.00;65.60
25732;DHT22;13585;50.864;4.406;2023-04-15T02:35:17;19.10;65.70
25732;DHT22;13585;50.864;4.406;2023-04-15T02:37:44;19.10;65.70
25732;DHT22;13585;50.864;4.406;2023-04-15T02:40:11;19.00;65.60
25732;DHT22;13585;50.864;4.406;2023-04-15T02:42:40;19.00;65.60
25732;DHT22;13585;50.864;4.406;2023-04-15T02:45:07;19.00;65.60
25732;DHT22;13585;50.864;4.406;2023-04-15T02:47:33;19.00;65.50
25732;DHT22;13585;50.864;4.406;2023-04-15T02:50:01;19.00;65.50
25732;DHT22;13585;50.864;4.406;2023-04-15T02:52:27;19.10;65.50
25732;DHT22;13585;50.864;4.406;2023-04-15T02:54:53;19.00;65.50
25732;DHT22;13585;50.864;4.406;2023-04-15T02:57:22;19.00;65.50
25732;DHT22;13585;50.864;4.406;2023-04-15T02:59:47;19.00;65.40
25732;DHT22;13585;50.864;4.406;2023-04-15T03:02:13;19.00;65.40
25732;DHT22;13585;50.864;4.406;2023-04-15T03:04:39;19.00;65.40
25732;DHT22;13585;50.864;4.406;2023-04-15T03:07:04;19.00;65.40
25732;DHT22;13585;50.864;4.406;2023-04-15T03:09:30;19.00;65.40
25732;DHT22;13585;50.864;4.406;2023-04-15T03:11:56;19.00;65.40
25732;DHT22;13585;50.864;4.406;2023-04-15T03:14:22;19.00;65.40
25732;DHT22;13585;50.864;4.406;2023-04-15T03:16:47;19.00;65.30
25732;DHT22;13585;50.864;4.406;2023-04-15T03:19:14;19.00;65.40
25732;DHT22;13585;50.864;4.406;2023-04-15T03:21:40;19.00;65.30
25732;DHT22;13585;50.864;4.406;2023-04-15T03:24:06;19.00;65.30
25732;DHT22;13585;50.864;4.406;2023-04-15T03:26:32;19.00;65.30
25732;DHT22;13585;50.864;4.406;2023-04-15T03:28:57;19.00;65.20
25732;DHT22;13585;50.864;4.406;2023-04-15T03:31:23;19.00;65.20
25732;DHT22;13585;50.864;4.406;2023-04-15T03:33:49;19.00;65.20
25732;DHT22;13585;50.864;4.406;2023-04-15T03:36:15;19.00;65.20
25732;DHT22;13585;50.864;4.406;2023-04-15T03:38:41;19.00;65.20
25732;DHT22;13585;50.864;4.406;2023-04-15T03:41:07;19.00;65.10
25732;DHT22;13585;50.864;4.406;2023-04-15T03:43:32;19.00;65.10
25732;DHT22;13585;50.864;4.406;2023-04-15T03:45:58;19.00;65.10
25732;DHT22;13585;50.864;4.406;2023-04-15T03:48:24;19.00;65.10
25732;DHT22;13585;50.864;4.406;2023-04-15T03:50:49;19.00;65.10
25732;DHT22;13585;50.864;4.406;2023-04-15T03:53:15;19.00;65.10
25732;DHT22;13585;50.864;4.406;2023-04-15T03:55:41;19.00;65.10
25732;DHT22;13585;50.864;4.406;2023-04-15T03:58:06;19.00;65.00
25732;DHT22;13585;50.864;4.406;2023-04-15T04:00:32;19.00;65.00
25732;DHT22;13585;50.864;4.406;2023-04-15T04:02:57;19.00;65.10
25732;DHT22;13585;50.864;4.406;2023-04-15T04:05:23;19.00;65.00
25732;DHT22;13585;50.864;4.406;2023-04-15T04:07:49;19.00;64.90
25732;DHT22;13585;50.864;4.406;2023-04-15T04:10:15;19.00;64.90
25732;DHT22;13585;50.864;4.406;2023-04-15T04:12:40;19.00;64.90
25732;DHT22;13585;50.864;4.406;2023-04-15T04:15:06;19.00;64.90
25732;DHT22;13585;50.864;4.406;2023-04-15T04:17:33;19.00;64.90
25732;DHT22;13585;50.864;4.406;2023-04-15T04:19:58;19.00;64.90
25732;DHT22;13585;50.864;4.406;2023-04-15T04:22:24;19.00;64.90
25732;DHT22;13585;50.864;4.406;2023-04-15T04:24:52;19.00;64.80
25732;DHT22;13585;50.864;4.406;2023-04-15T04:27:18;19.00;64.80
25732;DHT22;13585;50.864;4.406;2023-04-15T04:29:44;19.00;64.80
25732;DHT22;13585;50.864;4.406;2023-04-15T04:32:12;19.00;64.70
25732;DHT22;13585;50.864;4.406;2023-04-15T04:34:37;18.90;64.70
25732;DHT22;13585;50.864;4.406;2023-04-15T04:37:03;19.00;64.70
25732;DHT22;13585;50.864;4.406;2023-04-15T04:39:28;18.90;64.60
25732;DHT22;13585;50.864;4.406;2023-04-15T04:41:54;19.00;64.70
25732;DHT22;13585;50.864;4.406;2023-04-15T04:44:20;19.00;64.70
25732;DHT22;13585;50.864;4.406;2023-04-15T04:46:46;19.00;64.60
25732;DHT22;13585;50.864;4.406;2023-04-15T04:49:12;18.90;64.50
25732;DHT22;13585;50.864;4.406;2023-04-15T04:51:37;18.90;64.60
25732;DHT22;13585;50.864;4.406;2023-04-15T04:54:03;18.90;64.50
25732;DHT22;13585;50.864;4.406;2023-04-15T04:56:29;18.90;64.50
25732;DHT22;13585;50.864;4.406;2023-04-15T04:58:54;19.00;64.60
25732;DHT22;13585;50.864;4.406;2023-04-15T05:01:20;18.90;64.50
25732;DHT22;13585;50.864;4.406;2023-04-15T05:03:46;18.90;64.50
25732;DHT22;13585;50.864;4.406;2023-04-15T05:06:12;18.90;64.50
25732;DHT22;13585;50.864;4.406;2023-04-15T05:08:37;18.90;64.40
25732;DHT22;13585;50.864;4.406;2023-04-15T05:11:03;18.90;64.40
25732;DHT22;13585;50.864;4.406;2023-04-15T05:13:28;18.90;64.30
25732;DHT22;13585;50.864;4.406;2023-04-15T05:15:55;18.90;64.30
25732;DHT22;13585;50.864;4.406;2023-04-15T05:18:21;18.90;64.30
25732;DHT22;13585;50.864;4.406;2023-04-15T05:20:46;18.90;64.40
25732;DHT22;13585;50.864;4.406;2023-04-15T05:23:14;18.90;65.10
25732;DHT22;13585;50.864;4.406;2023-04-15T05:25:40;18.90;64.30
25732;DHT22;13585;50.864;4.406;2023-04-15T05:28:06;18.90;64.30
25732;DHT22;13585;50.864;4.406;2023-04-15T05:30:31;18.90;64.30
25732;DHT22;13585;50.864;4.406;2023-04-15T05:32:57;18.90;64.30
25732;DHT22;13585;50.864;4.406;2023-04-15T05:35:22;18.90;64.20
25732;DHT22;13585;50.864;4.406;2023-04-15T05:37:48;18.90;64.20
25732;DHT22;13585;50.864;4.406;2023-04-15T05:40:14;18.90;64.20
25732;DHT22;13585;50.864;4.406;2023-04-15T05:42:39;18.90;64.20
25732;DHT22;13585;50.864;4.406;2023-04-15T05:45:06;18.90;64.10
25732;DHT22;13585;50.864;4.406;2023-04-15T05:47:34;18.90;64.10
25732;DHT22;13585;50.864;4.406;2023-04-15T05:50:00;18.90;64.10
25732;DHT22;13585;50.864;4.406;2023-04-15T05:52:26;18.90;64.10
25732;DHT22;13585;50.864;4.406;2023-04-15T05:54:52;18.90;64.10
25732;DHT22;13585;50.864;4.406;2023-04-15T05:57:19;18.90;64.10
25732;DHT22;13585;50.864;4.406;2023-04-15T05:59:45;18.90;64.10
25732;DHT22;13585;50.864;4.406;2023-04-15T06:02:11;18.90;64.10
25732;DHT22;13585;50.864;4.406;2023-04-15T06:04:37;18.90;64.00
25732;DHT22;13585;50.864;4.406;2023-04-15T06:07:03;18.90;64.00
25732;DHT22;13585;50.864;4.406;2023-04-15T06:09:29;18.90;64.00
25732;DHT22;13585;50.864;4.406;2023-04-15T06:11:55;18.80;63.90
25732;DHT22;13585;50.864;4.406;2023-04-15T06:14:22;18.90;64.00
25732;DHT22;13585;50.864;4.406;2023-04-15T06:16:47;18.80;63.90
25732;DHT22;13585;50.864;4.406;2023-04-15T06:19:13;18.90;63.90
25732;DHT22;13585;50.864;4.406;2023-04-15T06:21:39;18.90;63.90
25732;DHT22;13585;50.864;4.406;2023-04-15T06:24:05;18.90;63.90
25732;DHT22;13585;50.864;4.406;2023-04-15T06:26:30;18.90;63.90
25732;DHT22;13585;50.864;4.406;2023-04-15T06:28:56;18.90;63.80
25732;DHT22;13585;50.864;4.406;2023-04-15T06:31:22;18.90;63.90
25732;DHT22;13585;50.864;4.406;2023-04-15T06:33:47;18.90;63.80
25732;DHT22;13585;50.864;4.406;2023-04-15T06:36:13;18.90;63.80
25732;DHT22;13585;50.864;4.406;2023-04-15T06:38:39;18.90;63.80
25732;DHT22;13585;50.864;4.406;2023-04-15T06:41:05;18.90;63.80
25732;DHT22;13585;50.864;4.406;2023-04-15T06:43:31;18.90;63.70
25732;DHT22;13585;50.864;4.406;2023-04-15T06:45:56;18.80;63.70
25732;DHT22;13585;50.864;4.406;2023-04-15T06:48:22;18.90;63.70
25732;DHT22;13585;50.864;4.406;2023-04-15T06:50:48;18.90;63.70
25732;DHT22;13585;50.864;4.406;2023-04-15T06:53:14;18.90;63.70
25732;DHT22;13585;50.864;4.406;2023-04-15T06:55:40;18.90;63.60
25732;DHT22;13585;50.864;4.406;2023-04-15T06:58:06;18.90;63.70
25732;DHT22;13585;50.864;4.406;2023-04-15T07:00:32;18.90;63.60
25732;DHT22;13585;50.864;4.406;2023-04-15T07:03:01;18.90;63.60
25732;DHT22;13585;50.864;4.406;2023-04-15T07:05:28;18.90;63.60
25732;DHT22;13585;50.864;4.406;2023-04-15T07:07:54;18.90;63.60
25732;DHT22;13585;50.864;4.406;2023-04-15T07:10:20;18.80;63.60
25732;DHT22;13585;50.864;4.406;2023-04-15T07:12:47;18.90;63.60
25732;DHT22;13585;50.864;4.406;2023-04-15T07:15:12;18.90;63.60
25732;DHT22;13585;50.864;4.406;2023-04-15T07:17:40;18.90;63.60
25732;DHT22;13585;50.864;4.406;2023-04-15T07:20:06;18.90;63.60
25732;DHT22;13585;50.864;4.406;2023-04-15T07:22:32;18.90;63.60
25732;DHT22;13585;50.864;4.406;2023-04-15T07:24:58;18.90;63.60
25732;DHT22;13585;50.864;4.406;2023-04-15T07:27:24;18.90;63.60
25732;DHT22;13585;50.864;4.406;2023-04-15T07:29:50;18.90;63.60
25732;DHT22;13585;50.864;4.406;2023-04-15T07:32:16;18.90;63.60
25732;DHT22;13585;50.864;4.406;2023-04-15T07:34:42;18.90;63.60
25732;DHT22;13585;50.864;4.406;2023-04-15T07:37:08;18.90;63.60
25732;DHT22;13585;50.864;4.406;2023-04-15T07:39:34;18.90;63.60
25732;DHT22;13585;50.864;4.406;2023-04-15T07:42:00;18.90;63.60
25732;DHT22;13585;50.864;4.406;2023-04-15T07:44:26;19.00;63.70
25732;DHT22;13585;50.864;4.406;2023-04-15T07:46:52;19.00;63.70
25732;DHT22;13585;50.864;4.406;2023-04-15T07:49:18;19.00;63.70
25732;DHT22;13585;50.864;4.406;2023-04-15T07:51:45;19.00;63.70
25732;DHT22;13585;50.864;4.406;2023-04-15T07:54:11;19.00;63.70
25732;DHT22;13585;50.864;4.406;2023-04-15T07:56:37;19.00;63.70
25732;DHT22;13585;50.864;4.406;2023-04-15T07:59:02;19.00;63.70
25732;DHT22;13585;50.864;4.406;2023-04-15T08:01:30;19.00;63.70
25732;DHT22;13585;50.864;4.406;2023-04-15T08:03:57;19.00;63.70
25732;DHT22;13585;50.864;4.406;2023-04-15T08:06:23;19.00;63.70
25732;DHT22;13585;50.864;4.406;2023-04-15T08:08:49;19.00;63.70
25732;DHT22;13585;50.864;4.406;2023-04-15T08:11:28;19.00;63.70
25732;DHT22;13585;50.864;4.406;2023-04-15T08:16:25;19.00;63.80
25732;DHT22;13585;50.864;4.406;2023-04-15T08:18:55;19.00;64.60
25732;DHT22;13585;50.864;4.406;2023-04-15T08:21:55;19.00;63.80
25732;DHT22;13585;50.864;4.406;2023-04-15T08:24:33;19.00;63.90
25732;DHT22;13585;50.864;4.406;2023-04-15T08:26:59;19.10;63.90
25732;DHT22;13585;50.864;4.406;2023-04-15T08:29:29;19.00;63.90
25732;DHT22;13585;50.864;4.406;2023-04-15T08:31:55;19.00;63.90
25732;DHT22;13585;50.864;4.406;2023-04-15T08:34:31;19.10;64.10
25732;DHT22;13585;50.864;4.406;2023-04-15T08:36:57;19.10;64.10
25732;DHT22;13585;50.864;4.406;2023-04-15T08:39:22;19.10;64.10
25732;DHT22;13585;50.864;4.406;2023-04-15T08:42:05;19.10;64.10
25732;DHT22;13585;50.864;4.406;2023-04-15T08:44:35;19.00;64.10
25732;DHT22;13585;50.864;4.406;2023-04-15T08:47:07;19.10;64.10
25732;DHT22;13585;50.864;4.406;2023-04-15T08:49:36;19.00;64.10
25732;DHT22;13585;50.864;4.406;2023-04-15T08:52:03;19.10;64.20
25732;DHT22;13585;50.864;4.406;2023-04-15T08:54:30;19.00;64.20
25732;DHT22;13585;50.864;4.406;2023-04-15T08:56:57;19.10;64.20
25732;DHT22;13585;50.864;4.406;2023-04-15T08:59:23;19.10;64.20
25732;DHT22;13585;50.864;4.406;2023-04-15T09:01:49;19.10;64.20
25732;DHT22;13585;50.864;4.406;2023-04-15T09:04:16;19.10;64.30
25732;DHT22;13585;50.864;4.406;2023-04-15T09:06:42;19.10;64.30
25732;DHT22;13585;50.864;4.406;2023-04-15T09:09:08;19.10;64.30
25732;DHT22;13585;50.864;4.406;2023-04-15T09:11:34;19.10;64.30
25732;DHT22;13585;50.864;4.406;2023-04-15T09:14:00;19.10;64.30
25732;DHT22;13585;50.864;4.406;2023-04-15T09:16:26;19.10;64.30
25732;DHT22;13585;50.864;4.406;2023-04-15T09:18:53;19.10;64.30
25732;DHT22;13585;50.864;4.406;2023-04-15T09:21:19;19.10;64.30
25732;DHT22;13585;50.864;4.406;2023-04-15T09:24:00;19.10;64.30
25732;DHT22;13585;50.864;4.406;2023-04-15T09:26:44;19.10;64.40
25732;DHT22;13585;50.864;4.406;2023-04-15T09:29:13;19.10;64.50
25732;DHT22;13585;50.864;4.406;2023-04-15T09:31:46;19.20;64.40
25732;DHT22;13585;50.864;4.406;2023-04-15T09:34:12;19.20;64.40
25732;DHT22;13585;50.864;4.406;2023-04-15T09:36:57;19.10;64.30
25732;DHT22;13585;50.864;4.406;2023-04-15T09:39:26;19.20;64.40
25732;DHT22;13585;50.864;4.406;2023-04-15T09:42:07;19.20;64.40
25732;DHT22;13585;50.864;4.406;2023-04-15T09:44:33;19.10;64.40
25732;DHT22;13585;50.864;4.406;2023-04-15T09:46:58;19.20;64.30
25732;DHT22;13585;50.864;4.406;2023-04-15T09:49:24;19.20;64.40
25732;DHT22;13585;50.864;4.406;2023-04-15T09:51:50;19.10;64.20
25732;DHT22;13585;50.864;4.406;2023-04-15T09:54:19;19.10;64.20
25732;DHT22;13585;50.864;4.406;2023-04-15T09:56:46;19.20;64.20
25732;DHT22;13585;50.864;4.406;2023-04-15T09:59:11;19.20;64.20
25732;DHT22;13585;50.864;4.406;2023-04-15T10:01:39;19.10;64.10
25732;DHT22;13585;50.864;4.406;2023-04-15T10:04:05;19.20;64.10
25732;DHT22;13585;50.864;4.406;2023-04-15T10:06:31;19.20;64.00
25732;DHT22;13585;50.864;4.406;2023-04-15T10:08:58;19.20;64.00
25732;DHT22;13585;50.864;4.406;2023-04-15T10:11:27;19.20;64.00
25732;DHT22;13585;50.864;4.406;2023-04-15T10:13:53;19.20;64.00
25732;DHT22;13585;50.864;4.406;2023-04-15T10:16:23;19.20;64.00
25732;DHT22;13585;50.864;4.406;2023-04-15T10:18:54;19.20;64.00
25732;DHT22;13585;50.864;4.406;2023-04-15T10:21:27;19.20;64.00
25732;DHT22;13585;50.864;4.406;2023-04-15T10:23:53;19.20;64.00
25732;DHT22;13585;50.864;4.406;2023-04-15T10:26:19;19.20;64.00
25732;DHT22;13585;50.864;4.406;2023-04-15T10:28:51;19.20;64.00
25732;DHT22;13585;50.864;4.406;2023-04-15T10:31:18;19.20;64.00
25732;DHT22;13585;50.864;4.406;2023-04-15T10:33:46;19.20;64.00
25732;DHT22;13585;50.864;4.406;2023-04-15T10:36:16;19.40;64.10
25732;DHT22;13585;50.864;4.406;2023-04-15T10:38:44;19.20;64.00
25732;DHT22;13585;50.864;4.406;2023-04-15T10:41:16;19.30;64.00
25732;DHT22;13585;50.864;4.406;2023-04-15T10:43:53;19.30;64.00
25732;DHT22;13585;50.864;4.406;2023-04-15T10:49:15;19.30;64.00
25732;DHT22;13585;50.864;4.406;2023-04-15T10:51:45;19.30;64.00
25732;DHT22;13585;50.864;4.406;2023-04-15T11:02:44;19.30;64.00
25732;DHT22;13585;50.864;4.406;2023-04-15T11:12:44;19.30;63.80
25732;DHT22;13585;50.864;4.406;2023-04-15T11:15:45;19.30;63.80
25732;DHT22;13585;50.864;4.406;2023-04-15T11:18:19;19.30;63.90
25732;DHT22;13585;50.864;4.406;2023-04-15T11:20:52;19.40;63.70
25732;DHT22;13585;50.864;4.406;2023-04-15T11:23:40;19.30;63.70
25732;DHT22;13585;50.864;4.406;2023-04-15T11:26:11;19.30;63.80
25732;DHT22;13585;50.864;4.406;2023-04-15T11:28:38;19.40;63.70
25732;DHT22;13585;50.864;4.406;2023-04-15T11:33:37;19.40;63.90
25732;DHT22;13585;50.864;4.406;2023-04-15T11:36:03;19.40;63.70
25732;DHT22;13585;50.864;4.406;2023-04-15T11:38:33;19.40;63.80
25732;DHT22;13585;50.864;4.406;2023-04-15T11:40:59;19.40;63.90
25732;DHT22;13585;50.864;4.406;2023-04-15T11:45:59;19.40;63.90
25732;DHT22;13585;50.864;4.406;2023-04-15T11:48:27;19.40;64.00
25732;DHT22;13585;50.864;4.406;2023-04-15T11:51:00;19.40;64.00
25732;DHT22;13585;50.864;4.406;2023-04-15T11:53:43;19.50;64.10
25732;DHT22;13585;50.864;4.406;2023-04-15T11:56:24;19.50;64.30
25732;DHT22;13585;50.864;4.406;2023-04-15T11:59:00;19.40;65.00
25732;DHT22;13585;50.864;4.406;2023-04-15T12:01:33;19.40;64.20
25732;DHT22;13585;50.864;4.406;2023-04-15T12:04:00;19.50;64.40
25732;DHT22;13585;50.864;4.406;2023-04-15T12:06:31;19.50;64.40
25732;DHT22;13585;50.864;4.406;2023-04-15T12:09:02;19.50;64.50
25732;DHT22;13585;50.864;4.406;2023-04-15T12:11:49;19.50;64.60
25732;DHT22;13585;50.864;4.406;2023-04-15T12:16:58;19.50;64.70
25732;DHT22;13585;50.864;4.406;2023-04-15T12:22:02;19.50;64.70
25732;DHT22;13585;50.864;4.406;2023-04-15T12:24:39;19.60;64.90
25732;DHT22;13585;50.864;4.406;2023-04-15T12:27:20;19.50;65.00
25732;DHT22;13585;50.864;4.406;2023-04-15T12:29:45;19.50;65.10
25732;DHT22;13585;50.864;4.406;2023-04-15T12:32:15;19.60;65.10
25732;DHT22;13585;50.864;4.406;2023-04-15T12:34:51;19.60;65.30
25732;DHT22;13585;50.864;4.406;2023-04-15T12:37:17;19.60;65.40
25732;DHT22;13585;50.864;4.406;2023-04-15T12:39:44;19.60;65.30
25732;DHT22;13585;50.864;4.406;2023-04-15T12:42:11;19.60;65.40
25732;DHT22;13585;50.864;4.406;2023-04-15T12:44:37;19.60;65.50
25732;DHT22;13585;50.864;4.406;2023-04-15T12:47:04;19.60;65.60
25732;DHT22;13585;50.864;4.406;2023-04-15T12:49:30;19.60;65.50
25732;DHT22;13585;50.864;4.406;2023-04-15T12:51:58;19.60;65.60
25732;DHT22;13585;50.864;4.406;2023-04-15T12:54:25;19.70;65.60
25732;DHT22;13585;50.864;4.406;2023-04-15T12:56:51;19.70;65.70
25732;DHT22;13585;50.864;4.406;2023-04-15T12:59:17;19.60;65.60
25732;DHT22;13585;50.864;4.406;2023-04-15T13:01:44;19.70;65.70
25732;DHT22;13585;50.864;4.406;2023-04-15T13:04:42;19.70;65.70
25732;DHT22;13585;50.864;4.406;2023-04-15T13:07:15;19.60;65.70
25732;DHT22;13585;50.864;4.406;2023-04-15T13:09:41;19.70;65.60
25732;DHT22;13585;50.864;4.406;2023-04-15T13:12:07;19.70;65.60
25732;DHT22;13585;50.864;4.406;2023-04-15T13:14:32;19.70;65.60
25732;DHT22;13585;50.864;4.406;2023-04-15T13:16:58;19.70;65.60
25732;DHT22;13585;50.864;4.406;2023-04-15T13:19:24;19.70;65.60
25732;DHT22;13585;50.864;4.406;2023-04-15T13:21:50;19.70;65.60
25732;DHT22;13585;50.864;4.406;2023-04-15T13:24:15;19.70;65.60
25732;DHT22;13585;50.864;4.406;2023-04-15T13:26:41;19.70;65.60
25732;DHT22;13585;50.864;4.406;2023-04-15T13:29:07;19.80;65.70
25732;DHT22;13585;50.864;4.406;2023-04-15T13:31:32;19.70;65.70
25732;DHT22;13585;50.864;4.406;2023-04-15T13:33:58;19.70;65.60
25732;DHT22;13585;50.864;4.406;2023-04-15T13:36:23;19.70;65.70
25732;DHT22;13585;50.864;4.406;2023-04-15T13:38:50;19.80;65.80
25732;DHT22;13585;50.864;4.406;2023-04-15T13:41:16;19.80;65.70
25732;DHT22;13585;50.864;4.406;2023-04-15T13:43:42;19.80;65.70
25732;DHT22;13585;50.864;4.406;2023-04-15T13:46:07;19.80;65.70
25732;DHT22;13585;50.864;4.406;2023-04-15T13:48:33;19.80;65.60
25732;DHT22;13585;50.864;4.406;2023-04-15T13:51:02;19.80;65.60
25732;DHT22;13585;50.864;4.406;2023-04-15T13:53:27;19.80;65.40
25732;DHT22;13585;50.864;4.406;2023-04-15T13:55:55;19.80;64.70
25732;DHT22;13585;50.864;4.406;2023-04-15T13:58:20;19.90;63.60
25732;DHT22;13585;50.864;4.406;2023-04-15T14:00:46;19.80;63.10
25732;DHT22;13585;50.864;4.406;2023-04-15T14:03:12;19.80;63.10
25732;DHT22;13585;50.864;4.406;2023-04-15T14:05:37;19.80;62.60
25732;DHT22;13585;50.864;4.406;2023-04-15T14:08:03;19.80;62.00
25732;DHT22;13585;50.864;4.406;2023-04-15T14:10:28;19.70;61.20
25732;DHT22;13585;50.864;4.406;2023-04-15T14:12:57;19.70;60.60
25732;DHT22;13585;50.864;4.406;2023-04-15T14:15:22;19.70;60.00
25732;DHT22;13585;50.864;4.406;2023-04-15T14:17:48;19.80;59.70
25732;DHT22;13585;50.864;4.406;2023-04-15T14:20:14;19.70;59.30
25732;DHT22;13585;50.864;4.406;2023-04-15T14:22:39;19.70;59.10
25732;DHT22;13585;50.864;4.406;2023-04-15T14:25:08;19.70;58.80
25732;DHT22;13585;50.864;4.406;2023-04-15T14:27:34;19.70;58.60
25732;DHT22;13585;50.864;4.406;2023-04-15T14:30:00;19.70;58.50
25732;DHT22;13585;50.864;4.406;2023-04-15T14:32:25;19.70;58.30
25732;DHT22;13585;50.864;4.406;2023-04-15T14:34:51;19.70;58.20
25732;DHT22;13585;50.864;4.406;2023-04-15T14:37:17;19.80;58.20
25732;DHT22;13585;50.864;4.406;2023-04-15T14:39:42;19.80;58.10
25732;DHT22;13585;50.864;4.406;2023-04-15T14:42:08;19.70;58.00
25732;DHT22;13585;50.864;4.406;2023-04-15T14:44:34;19.70;58.00
25732;DHT22;13585;50.864;4.406;2023-04-15T14:46:59;19.70;58.00
25732;DHT22;13585;50.864;4.406;2023-04-15T14:49:28;19.70;58.50
25732;DHT22;13585;50.864;4.406;2023-04-15T14:51:55;19.80;58.00
25732;DHT22;13585;50.864;4.406;2023-04-15T14:54:21;19.80;58.00
25732;DHT22;13585;50.864;4.406;2023-04-15T14:56:47;19.70;58.00
25732;DHT22;13585;50.864;4.406;2023-04-15T14:59:12;19.80;58.10
25732;DHT22;13585;50.864;4.406;2023-04-15T15:01:38;19.80;58.10
25732;DHT22;13585;50.864;4.406;2023-04-15T15:04:04;19.80;58.70
25732;DHT22;13585;50.864;4.406;2023-04-15T15:06:29;19.80;58.10
25732;DHT22;13585;50.864;4.406;2023-04-15T15:08:55;19.80;58.20
25732;DHT22;13585;50.864;4.406;2023-04-15T15:11:21;19.80;58.30
25732;DHT22;13585;50.864;4.406;2023-04-15T15:13:47;19.80;58.30
25732;DHT22;13585;50.864;4.406;2023-04-15T15:16:13;19.80;58.30
25732;DHT22;13585;50.864;4.406;2023-04-15T15:18:39;19.80;58.30
25732;DHT22;13585;50.864;4.406;2023-04-15T15:21:04;19.80;58.40
25732;DHT22;13585;50.864;4.406;2023-04-15T15:23:30;19.90;58.50
25732;DHT22;13585;50.864;4.406;2023-04-15T15:25:56;19.90;58.50
25732;DHT22;13585;50.864;4.406;2023-04-15T15:28:22;19.80;58.50
25732;DHT22;13585;50.864;4.406;2023-04-15T15:30:48;19.80;58.50
25732;DHT22;13585;50.864;4.406;2023-04-15T15:33:13;19.80;58.60
25732;DHT22;13585;50.864;4.406;2023-04-15T15:35:39;19.90;58.70
25732;DHT22;13585;50.864;4.406;2023-04-15T15:38:05;19.90;59.30
25732;DHT22;13585;50.864;4.406;2023-04-15T15:40:31;19.90;58.70
25732;DHT22;13585;50.864;4.406;2023-04-15T15:42:56;19.90;58.80
25732;DHT22;13585;50.864;4.406;2023-04-15T15:45:22;19.90;58.80
25732;DHT22;13585;50.864;4.406;2023-04-15T15:47:48;19.90;58.80
25732;DHT22;13585;50.864;4.406;2023-04-15T15:50:13;19.90;58.90
25732;DHT22;13585;50.864;4.406;2023-04-15T15:52:40;19.90;58.90
25732;DHT22;13585;50.864;4.406;2023-04-15T15:55:06;19.90;58.90
25732;DHT22;13585;50.864;4.406;2023-04-15T15:57:31;19.90;58.90
25732;DHT22;13585;50.864;4.406;2023-04-15T15:59:57;19.90;59.00
25732;DHT22;13585;50.864;4.406;2023-04-15T16:02:23;19.90;59.00